Time;durP1;ratioP1;P1;durP2;ratioP2;P2;SDS_P1;SDS_P2;PMS_P1;PMS_P2;Temp;Humidity;BMP_temperature;BMP_pressure;BME280_temperature;BME280_humidity;BME280_pressure;Samples;Min_cycle;Max_cycle;Signal;HPM_P1;HPM_P2
2022/09/24 00:00:44;;;;;;;3.90;3.63;;;9.70;94.90;;;9.76;60.77;95304.16;5024752;28;20481;-56
2022/09/24 00:03:12;;;;;;;4.03;3.73;;;9.70;94.80;;;9.77;61.23;95299.72;5024025;28;20519;-56
2022/09/24 00:05:41;;;;;;;5.03;3.73;;;9.70;94.70;;;9.77;61.20;95291.84;5024190;28;20493;-56
2022/09/24 00:08:08;;;;;;;5.03;3.93;;;9.70;94.80;;;9.75;61.23;95302.47;5025401;28;21057;-55
2022/09/24 00:10:38;;;;;;;3.50;3.30;;;9.70;94.90;;;9.74;60.93;95290.28;5025397;28;20920;-56
2022/09/24 00:13:05;;;;;;;4.13;3.70;;;9.70;94.80;;;9.73;60.85;95296.53;5021833;28;20770;-56
2022/09/24 00:15:37;;;;;;;4.00;3.70;;;9.70;94.80;;;9.72;60.83;95299.28;5029146;28;20899;-56
2022/09/24 00:18:04;;;;;;;4.77;4.10;;;9.60;94.60;;;9.71;61.04;95292.34;5026548;28;20535;-56
2022/09/24 00:20:31;;;;;;;7.33;3.27;;;9.60;94.80;;;9.69;60.89;95292.47;5026038;28;20460;-59
2022/09/24 00:23:00;;;;;;;7.30;4.13;;;9.60;94.80;;;9.67;60.96;95287.34;5025959;28;20465;-57
2022/09/24 00:28:12;;;;;;;7.63;4.07;;;9.60;94.70;;;9.65;60.97;95293.66;5026325;28;20471;-57
2022/09/24 00:30:40;;;;;;;4.90;3.50;;;9.60;94.70;;;9.63;61.14;95285.09;5022273;28;20584;-56
2022/09/24 00:33:07;;;;;;;4.60;4.20;;;9.60;94.80;;;9.60;61.08;95286.16;5023374;28;20456;-57
2022/09/24 00:35:35;;;;;;;5.23;4.07;;;9.50;94.80;;;9.60;61.01;95285.31;5024626;28;20481;-56
2022/09/24 00:38:04;;;;;;;5.30;4.17;;;9.50;94.80;;;9.58;61.27;95282.81;5023829;28;20555;-55
2022/09/24 00:40:34;;;;;;;4.10;3.77;;;9.50;94.80;;;9.57;61.06;95278.53;5025056;28;20481;-56
2022/09/24 00:43:01;;;;;;;6.03;3.40;;;9.50;94.80;;;9.55;61.10;95280.44;5025090;28;20464;-57
2022/09/24 00:45:29;;;;;;;4.23;3.87;;;9.50;94.80;;;9.53;61.02;95287.63;5020608;28;20787;-58
2022/09/24 00:47:56;;;;;;;4.50;3.57;;;9.50;94.80;;;9.51;61.58;95285.13;5024941;28;20461;-59
2022/09/24 00:50:26;;;;;;;3.70;3.40;;;9.40;94.90;;;9.52;61.56;95292.03;5024632;28;20503;-59
2022/09/24 00:52:55;;;;;;;6.03;4.07;;;9.50;95.10;;;9.48;60.84;95285.38;5022973;28;20467;-54
2022/09/24 00:55:24;;;;;;;4.37;3.97;;;9.40;94.70;;;9.42;61.31;95285.00;5024915;28;20864;-59
2022/09/24 00:57:53;;;;;;;7.90;4.13;;;9.40;94.80;;;9.37;61.28;95284.53;5024758;28;20484;-57
2022/09/24 01:00:20;;;;;;;3.43;3.23;;;9.30;94.80;;;9.36;61.35;95280.25;5024396;28;21078;-58
2022/09/24 01:02:48;;;;;;;4.30;3.90;;;9.30;95.20;;;9.34;61.61;95275.13;5024447;28;20465;-54
2022/09/24 01:05:16;;;;;;;4.17;3.77;;;9.30;95.30;;;9.32;61.82;95280.47;5022274;28;20473;-58
2022/09/24 01:07:46;;;;;;;4.30;3.90;;;9.30;95.30;;;9.29;61.41;95272.84;5024369;28;20468;-56
2022/09/24 01:10:46;;;;;;;3.83;3.53;;;9.20;95.20;;;9.27;61.38;95282.66;5024224;28;20530;-56
2022/09/24 01:13:13;;;;;;;2.93;2.73;;;9.20;95.30;;;9.24;61.31;95276.81;5022312;28;20456;-57
2022/09/24 01:15:44;;;;;;;6.83;4.30;;;9.20;95.30;;;9.21;61.69;95275.25;5023745;28;20995;-57
2022/09/24 01:18:15;;;;;;;4.60;3.40;;;9.20;95.40;;;9.19;61.56;95279.81;5024785;28;20453;-58
2022/09/24 01:20:59;;;;;;;7.70;3.40;;;9.10;95.50;;;9.17;62.06;95265.13;5022880;28;20465;-58
2022/09/24 01:24:24;;;;;;;3.00;2.80;;;9.10;95.60;;;9.17;62.31;95275.63;5021031;28;20452;-57
2022/09/24 01:27:01;;;;;;;2.93;2.73;;;9.10;96.30;;;9.14;62.40;95272.28;4942167;29;20472;-56
2022/09/24 01:29:49;;;;;;;2.93;2.73;;;9.10;95.70;;;9.12;62.30;95273.38;5022447;28;20476;-56
2022/09/24 01:32:19;;;;;;;3.90;3.60;;;9.00;95.80;;;9.11;62.43;95277.78;5020087;28;20456;-58
2022/09/24 01:34:50;;;;;;;7.83;2.63;;;9.10;95.90;;;9.09;62.16;95270.97;5023991;28;20488;-57
2022/09/24 01:37:20;;;;;;;2.50;2.30;;;9.00;95.70;;;9.08;62.60;95277.19;5021314;28;20453;-56
2022/09/24 01:39:47;;;;;;;5.40;3.10;;;9.00;96.00;;;9.06;61.93;95273.84;5024145;28;20493;-54
2022/09/24 01:42:14;;;;;;;3.93;3.03;;;9.00;95.80;;;9.03;62.34;95271.47;5023078;28;20449;-57
2022/09/24 01:44:43;;;;;;;4.77;2.80;;;9.00;95.80;;;9.02;62.33;95282.94;5024187;28;20476;-55
2022/09/24 01:47:11;;;;;;;3.00;2.80;;;9.00;96.00;;;9.01;62.10;95278.63;5023210;28;20453;-54
2022/09/24 01:49:39;;;;;;;2.80;2.60;;;9.00;95.90;;;8.99;62.49;95289.25;5027699;28;20744;-57
2022/09/24 01:52:09;;;;;;;3.50;3.30;;;8.90;96.00;;;8.96;62.56;95279.81;5027070;28;20468;-57
2022/09/24 01:54:39;;;;;;;3.40;3.10;;;8.90;96.30;;;8.94;63.07;95281.72;5027860;28;20937;-57
2022/09/24 01:57:14;;;;;;;4.87;2.87;;;8.90;96.30;;;8.93;62.68;95281.84;5028468;28;20464;-57
2022/09/24 01:59:45;;;;;;;5.20;3.87;;;8.90;96.30;;;8.91;62.51;95286.38;5025636;28;20491;-54
2022/09/24 02:02:16;;;;;;;3.30;3.10;;;8.90;96.30;;;8.89;62.36;95289.13;5027795;28;20472;-56
2022/09/24 02:04:46;;;;;;;3.40;3.20;;;8.80;96.30;;;8.88;62.38;95292.69;5027143;28;20471;-56
2022/09/24 02:07:18;;;;;;;3.93;3.63;;;8.80;96.30;;;8.87;63.03;95304.13;5026450;28;20479;-56
2022/09/24 02:09:45;;;;;;;4.13;3.87;;;8.80;96.40;;;8.87;62.74;95298.06;5024148;28;20480;-59
2022/09/24 02:12:15;;;;;;;4.90;3.00;;;8.80;96.40;;;8.86;63.06;95297.25;5024808;28;21015;-57
2022/09/24 02:14:46;;;;;;;2.80;2.60;;;8.80;96.50;;;8.85;63.12;95308.66;5027958;28;20496;-56
2022/09/24 02:17:13;;;;;;;3.10;2.90;;;8.80;96.60;;;8.83;62.68;95307.13;5027639;28;20517;-57
2022/09/24 02:19:40;;;;;;;3.03;2.83;;;8.80;96.50;;;8.83;62.44;95315.84;5031287;28;20461;-56
2022/09/24 02:22:08;;;;;;;3.70;3.30;;;8.70;96.40;;;8.81;63.17;95311.66;5028207;28;20930;-56
2022/09/24 02:24:40;;;;;;;3.53;3.23;;;8.80;96.90;;;8.81;62.96;95312.47;5025951;28;20488;-56
2022/09/24 02:27:07;;;;;;;9.33;3.80;;;8.70;96.50;;;8.79;63.09;95309.97;5028245;28;20506;-58
2022/09/24 02:29:34;;;;;;;5.23;3.77;;;8.70;96.50;;;8.78;63.47;95310.09;5028081;28;20473;-59
2022/09/24 02:32:03;;;;;;;4.23;3.87;;;8.70;96.60;;;8.77;63.20;95316.31;5028223;28;21019;-56
2022/09/24 02:34:33;;;;;;;5.67;4.10;;;8.70;96.60;;;8.74;63.16;95317.38;5026962;28;20480;-58
2022/09/24 02:37:05;;;;;;;12.20;3.50;;;8.70;96.60;;;8.75;62.79;95323.44;5023817;28;20476;-57
2022/09/24 02:39:32;;;;;;;4.30;3.90;;;8.70;96.60;;;8.74;62.74;95327.03;5026774;28;20568;-58
2022/09/24 02:42:00;;;;;;;4.80;3.53;;;8.70;96.60;;;8.71;62.96;95329.88;5026931;28;20477;-57
2022/09/24 02:44:27;;;;;;;3.97;3.67;;;8.70;96.50;;;8.69;62.84;95331.78;5026821;28;20484;-55
2022/09/24 02:46:55;;;;;;;7.20;3.57;;;8.60;96.40;;;8.66;63.22;95334.63;5027825;28;20949;-55
2022/09/24 02:49:23;;;;;;;4.07;3.70;;;8.60;96.50;;;8.64;62.58;95333.91;5025967;28;20476;-57
2022/09/24 02:51:51;;;;;;;4.93;4.13;;;8.60;96.40;;;8.61;62.72;95333.22;5027287;28;20505;-55
2022/09/24 02:54:18;;;;;;;5.20;4.23;;;8.60;96.50;;;8.59;62.86;95331.66;5025925;28;20908;-55
2022/09/24 02:56:45;;;;;;;3.57;3.27;;;8.60;96.60;;;8.57;62.50;95339.63;5026858;28;20468;-55
2022/09/24 02:59:12;;;;;;;4.17;3.83;;;8.60;96.50;;;8.53;62.53;95351.28;5024741;28;20484;-57
2022/09/24 03:01:40;;;;;;;3.00;2.77;;;8.50;96.30;;;8.47;62.55;95340.44;5026629;28;20626;-56
2022/09/24 03:04:07;;;;;;;3.47;3.23;;;8.50;96.50;;;8.43;62.85;95345.91;5026375;28;20489;-55
2022/09/24 03:06:36;;;;;;;7.33;2.63;;;8.40;96.40;;;8.40;63.32;95342.66;5025355;28;20822;-57
2022/09/24 03:09:04;;;;;;;2.73;2.53;;;8.40;96.60;;;8.37;62.36;95348.13;5027141;28;20564;-56
2022/09/24 03:11:32;;;;;;;3.50;2.60;;;8.40;96.40;;;8.34;63.31;95340.50;5023358;28;20492;-57
2022/09/24 03:13:59;;;;;;;3.23;2.80;;;8.30;96.60;;;8.32;63.30;95338.00;5022125;28;21021;-55
2022/09/24 03:16:26;;;;;;;2.80;2.60;;;8.30;96.50;;;8.29;63.29;95343.47;5025686;28;20465;-55
2022/09/24 03:18:54;;;;;;;2.80;2.53;;;8.30;96.50;;;8.26;62.99;95339.28;5025157;28;20477;-56
2022/09/24 03:21:22;;;;;;;3.07;2.60;;;8.20;96.50;;;8.24;63.62;95346.41;5025149;28;20848;-58
2022/09/24 03:23:50;;;;;;;5.30;2.90;;;8.20;96.90;;;8.23;62.62;95343.91;5030154;28;20476;-55
2022/09/24 03:26:18;;;;;;;2.50;2.40;;;8.20;96.60;;;8.20;62.66;95349.38;5026383;28;20847;-57
2022/09/24 03:28:45;;;;;;;3.10;2.80;;;8.20;96.70;;;8.19;63.24;95348.53;5024906;28;20575;-55
2022/09/24 03:31:11;;;;;;;2.87;2.67;;;8.20;96.70;;;8.18;62.61;95351.25;5025379;28;20879;-57
2022/09/24 03:33:40;;;;;;;2.60;2.50;;;8.10;96.60;;;8.17;62.77;95349.59;5025876;28;20475;-56
2022/09/24 03:36:09;;;;;;;2.47;2.37;;;8.10;96.70;;;8.14;62.75;95348.03;5025613;28;20949;-55
2022/09/24 03:38:38;;;;;;;6.37;3.20;;;8.10;96.60;;;8.13;62.65;95350.78;5024250;28;20464;-56
2022/09/24 03:41:07;;;;;;;3.37;3.00;;;8.10;96.60;;;8.11;62.77;95355.28;5024706;28;20481;-56
2022/09/24 03:43:34;;;;;;;4.13;3.30;;;8.10;96.70;;;8.07;63.35;95350.28;5021643;28;20457;-55
2022/09/24 03:46:02;;;;;;;3.17;2.97;;;8.10;96.80;;;8.02;63.58;95352.38;5025630;28;20872;-56
2022/09/24 03:48:29;;;;;;;3.30;3.10;;;8.00;96.80;;;7.97;62.85;95353.69;5024198;28;20461;-56
2022/09/24 03:50:57;;;;;;;3.87;3.47;;;8.00;96.80;;;7.91;63.32;95354.97;5025483;28;20903;-57
2022/09/24 03:53:24;;;;;;;5.77;3.80;;;7.90;96.70;;;7.85;63.78;95364.13;5026131;28;20992;-58
2022/09/24 03:55:55;;;;;;;4.27;3.97;;;7.90;97.00;;;7.80;63.76;95354.91;5025261;28;20527;-57
2022/09/24 03:58:23;;;;;;;3.40;3.13;;;7.80;96.80;;;7.75;63.76;95360.47;5023599;28;20554;-56
2022/09/24 04:00:52;;;;;;;3.90;3.70;;;7.80;97.30;;;7.71;63.97;95361.63;5024165;28;20480;-57
2022/09/24 04:03:20;;;;;;;4.20;3.80;;;7.70;97.50;;;7.69;64.39;95360.91;5025330;28;21041;-56
2022/09/24 04:05:47;;;;;;;10.63;4.10;;;7.70;97.50;;;7.69;64.42;95360.91;5025331;28;20488;-56
2022/09/24 04:08:14;;;;;;;5.43;3.50;;;7.70;97.60;;;7.66;63.91;95372.44;5024183;28;20468;-56
2022/09/24 04:10:41;;;;;;;6.10;3.83;;;7.70;97.40;;;7.64;64.12;95369.09;5024030;28;20488;-57
2022/09/24 04:13:09;;;;;;;6.80;4.27;;;7.70;97.60;;;7.64;63.97;95358.63;5023415;28;20463;-58
2022/09/24 04:15:37;;;;;;;4.43;3.13;;;7.70;97.50;;;7.66;64.52;95367.19;5025018;28;20484;-55
2022/09/24 04:18:05;;;;;;;4.90;3.90;;;7.70;97.60;;;7.66;63.70;95358.53;5026266;28;20957;-55
2022/09/24 04:20:33;;;;;;;16.73;4.57;;;7.60;97.50;;;7.61;64.12;95368.50;5025735;28;21019;-56
2022/09/24 04:23:01;;;;;;;5.43;4.30;;;7.60;97.40;;;7.57;64.35;95370.47;5024919;28;20457;-56
2022/09/24 04:25:30;;;;;;;4.27;3.90;;;7.60;97.50;;;7.51;64.24;95379.63;5025780;28;20856;-56
2022/09/24 04:27:59;;;;;;;5.90;5.30;;;7.60;97.50;;;7.49;63.91;95376.25;5024347;28;21603;-57
2022/09/24 04:30:26;;;;;;;17.13;4.90;;;7.50;97.60;;;7.49;64.78;95381.47;5022807;28;20586;-58
2022/09/24 04:32:55;;;;;;;7.43;3.80;;;7.50;97.80;;;7.50;64.29;95382.34;5023905;28;20498;-56
2022/09/24 04:35:23;;;;;;;10.03;4.70;;;7.50;97.90;;;7.53;64.66;95382.13;5022437;28;20494;-57
2022/09/24 04:37:50;;;;;;;5.23;4.23;;;7.50;97.90;;;7.56;64.70;95386.28;5024245;28;20496;-56
2022/09/24 04:40:18;;;;;;;7.63;4.23;;;7.50;97.90;;;7.60;64.66;95382.50;5023570;28;20481;-56
2022/09/24 04:42:46;;;;;;;6.83;4.60;;;7.60;97.90;;;7.62;64.32;95385.84;5024758;28;20476;-57
2022/09/24 04:45:16;;;;;;;7.43;5.00;;;7.60;97.90;;;7.64;64.74;95384.81;5024034;28;20477;-58
2022/09/24 04:47:43;;;;;;;7.40;4.60;;;7.70;97.90;;;7.68;64.37;95386.28;5025379;28;20539;-55
2022/09/24 04:50:12;;;;;;;14.23;5.20;;;7.60;97.90;;;7.70;64.25;95394.03;5023269;28;20476;-58
2022/09/24 04:52:40;;;;;;;10.13;4.73;;;7.70;97.80;;;7.75;64.24;95393.69;5024908;28;20492;-57
2022/09/24 04:55:08;;;;;;;5.77;5.27;;;7.70;97.90;;;7.80;64.73;95400.25;5023955;28;21075;-57
2022/09/24 04:57:36;;;;;;;8.60;4.70;;;7.80;98.00;;;7.87;64.63;95387.56;5024372;28;20464;-57
2022/09/24 05:00:04;;;;;;;6.60;5.00;;;7.80;98.00;;;7.96;63.83;95399.97;5024347;28;20496;-56
2022/09/24 05:02:32;;;;;;;4.43;4.03;;;7.90;98.00;;;8.11;64.16;95392.81;5020511;28;20456;-56
2022/09/24 05:04:59;;;;;;;7.77;3.70;;;8.10;97.90;;;8.23;64.19;95397.16;5023790;28;20894;-57
2022/09/24 05:07:28;;;;;;;5.60;4.30;;;8.20;97.60;;;8.31;63.88;95395.75;5022464;28;20464;-58
2022/09/24 05:09:55;;;;;;;7.10;5.00;;;8.30;97.50;;;8.36;63.95;95391.00;5024158;28;20472;-56
2022/09/24 05:12:22;;;;;;;4.40;3.87;;;8.30;97.50;;;8.32;63.42;95374.69;5021715;28;20496;-57
2022/09/24 05:14:50;;;;;;;5.73;4.07;;;8.40;97.00;;;8.36;63.22;95385.75;5024110;28;20488;-56
2022/09/24 05:17:17;;;;;;;5.33;3.33;;;8.40;96.90;;;8.40;62.56;95387.22;5022515;28;20854;-57
2022/09/24 05:19:45;;;;;;;6.03;4.07;;;8.40;96.90;;;8.49;62.71;95386.56;5023307;28;20717;-57
2022/09/24 05:22:12;;;;;;;4.87;3.67;;;8.50;96.70;;;8.50;62.69;95388.22;5024532;28;20742;-58
2022/09/24 05:24:40;;;;;;;4.77;4.20;;;8.60;96.70;;;8.51;63.14;95395.13;5028155;28;21010;-56
2022/09/24 05:27:08;;;;;;;3.73;3.53;;;8.50;96.60;;;8.50;62.51;95395.25;5025818;28;20453;-56
2022/09/24 05:29:36;;;;;;;4.00;3.70;;;8.50;96.60;;;8.47;62.94;95398.94;5025844;28;20487;-56
2022/09/24 05:32:05;;;;;;;4.33;4.03;;;8.50;96.70;;;8.41;62.55;95400.22;5028391;28;20492;-58
2022/09/24 05:34:33;;;;;;;5.23;4.47;;;8.40;96.50;;;8.35;62.82;95402.44;5028387;28;20526;-57
2022/09/24 05:37:00;;;;;;;9.57;4.13;;;8.40;96.60;;;8.32;62.67;95405.28;5028727;28;20878;-57
2022/09/24 05:39:28;;;;;;;6.33;4.60;;;8.30;96.70;;;8.32;62.73;95408.75;5028150;28;20468;-55
2022/09/24 05:41:57;;;;;;;5.20;4.60;;;8.30;96.90;;;8.37;63.09;95408.41;5028022;28;20578;-58
2022/09/24 05:44:24;;;;;;;6.00;4.07;;;8.30;96.90;;;8.42;62.85;95407.09;5027997;28;20460;-57
2022/09/24 05:46:51;;;;;;;4.00;3.60;;;8.40;96.90;;;8.51;63.28;95416.13;5028633;28;20546;-57
2022/09/24 05:49:19;;;;;;;4.60;4.17;;;8.40;96.90;;;8.62;62.59;95423.19;5030137;28;20476;-55
2022/09/24 05:51:49;;;;;;;4.73;4.33;;;8.50;96.80;;;8.76;62.36;95412.50;5028822;28;20496;-58
2022/09/24 05:54:16;;;;;;;4.43;4.03;;;8.70;96.90;;;8.94;62.87;95420.78;5023728;28;20567;-56
2022/09/24 05:56:43;;;;;;;4.70;4.30;;;8.80;97.00;;;9.14;62.61;95415.81;5029885;28;20459;-56
2022/09/24 05:59:12;;;;;;;6.37;5.07;;;9.00;96.80;;;9.37;62.34;95418.44;5029305;28;20495;-57
2022/09/24 06:01:39;;;;;;;5.27;4.87;;;9.20;96.70;;;9.58;61.50;95419.38;5023291;28;20455;-55
2022/09/24 06:04:07;;;;;;;8.03;5.10;;;9.40;96.30;;;9.80;61.30;95420.31;5028315;28;20461;-57
2022/09/24 06:06:34;;;;;;;20.07;5.27;;;9.60;96.20;;;10.02;60.84;95419.44;5028452;28;20460;-55
2022/09/24 06:09:01;;;;;;;5.40;4.80;;;9.80;95.90;;;10.26;60.90;95421.91;5028745;28;20570;-57
2022/09/24 06:11:32;;;;;;;6.60;5.37;;;10.00;95.30;;;10.50;60.36;95427.00;5027377;28;20497;-55
2022/09/24 06:14:01;;;;;;;10.70;6.07;;;10.30;95.20;;;10.75;59.87;95417.91;5023590;28;20559;-57
2022/09/24 06:16:32;;;;;;;7.47;5.70;;;10.50;94.70;;;11.01;59.27;95424.59;5028042;28;20546;-55
2022/09/24 06:18:59;;;;;;;9.30;5.43;;;10.80;94.40;;;11.27;59.11;95427.66;5028122;28;20545;-57
2022/09/24 06:21:27;;;;;;;6.13;5.50;;;11.00;94.30;;;11.54;58.54;95429.75;5026030;28;20547;-55
2022/09/24 06:23:54;;;;;;;7.80;5.57;;;11.30;93.70;;;11.80;57.98;95424.84;5025900;28;20622;-62
2022/09/24 06:26:21;;;;;;;5.80;5.30;;;11.50;93.50;;;12.09;57.50;95426.75;5027055;28;20546;-56
2022/09/24 06:28:49;;;;;;;8.10;5.47;;;11.80;93.20;;;12.36;56.90;95433.19;5027749;28;20540;-56
2022/09/24 06:31:16;;;;;;;10.47;5.97;;;12.10;92.60;;;12.64;56.39;95428.06;5028771;28;20950;-55
2022/09/24 06:33:45;;;;;;;6.20;5.60;;;12.30;92.20;;;12.91;55.93;95428.19;5027930;28;20769;-57
2022/09/24 06:36:13;;;;;;;10.03;6.20;;;12.60;91.80;;;13.21;55.23;95425.50;5026738;28;20472;-57
2022/09/24 06:38:40;;;;;;;9.60;5.67;;;12.90;91.20;;;13.51;54.84;95426.28;5027870;28;20449;-55
2022/09/24 06:41:08;;;;;;;11.10;6.80;;;13.20;90.90;;;13.81;54.73;95428.69;5027409;28;21011;-58
2022/09/24 06:43:35;;;;;;;11.03;5.80;;;13.50;90.50;;;14.02;53.73;95430.28;5030739;28;20838;-55
2022/09/24 06:46:03;;;;;;;9.00;5.73;;;13.70;89.80;;;14.17;53.09;95422.66;5025786;28;20487;-55
2022/09/24 06:48:31;;;;;;;7.30;5.13;;;13.90;88.30;;;14.32;52.76;95426.47;5029466;28;20441;-55
2022/09/24 06:51:00;;;;;;;7.07;5.13;;;14.00;87.70;;;14.37;52.50;95422.56;5028186;28;20537;-55
2022/09/24 06:53:27;;;;;;;5.70;5.20;;;14.00;86.20;;;14.57;52.00;95421.41;5028645;28;21058;-55
2022/09/24 06:55:58;;;;;;;8.10;4.93;;;14.20;85.60;;;14.91;51.70;95422.59;5026174;28;20841;-55
2022/09/24 06:58:25;;;;;;;7.47;5.20;;;14.50;85.20;;;15.25;51.22;95427.97;5027480;28;20461;-56
2022/09/24 07:00:53;;;;;;;7.30;5.20;;;14.80;84.50;;;15.65;50.47;95429.22;5030266;28;20491;-56
2022/09/24 07:03:21;;;;;;;6.30;5.80;;;15.20;83.20;;;16.08;49.52;95429.28;5024311;28;20966;-56
2022/09/24 07:05:48;;;;;;;21.20;6.13;;;15.60;81.40;;;16.48;49.32;95427.75;5025781;28;20468;-57
2022/09/24 07:08:17;;;;;;;13.30;5.63;;;16.00;80.80;;;16.68;48.21;95430.94;5028319;28;20452;-57
2022/09/24 07:10:45;;;;;;;21.93;5.60;;;16.20;78.20;;;16.97;47.77;95435.00;5027762;28;20469;-55
2022/09/24 07:13:13;;;;;;;5.83;5.30;;;16.50;77.90;;;17.24;46.79;95430.34;5025218;28;20496;-55
2022/09/24 07:15:40;;;;;;;7.93;5.47;;;16.70;75.60;;;17.64;47.34;95434.75;5024146;28;20869;-56
2022/09/24 07:18:08;;;;;;;7.50;5.30;;;17.00;76.10;;;18.17;47.25;95421.84;5025188;28;20894;-56
2022/09/24 07:20:35;;;;;;;8.07;5.30;;;17.50;76.10;;;18.74;46.40;95427.84;5019638;28;21178;-56
2022/09/24 07:23:04;;;;;;;17.70;4.17;;;18.10;74.80;;;19.24;46.35;95417.66;5024063;28;20460;-57
2022/09/24 07:25:32;;;;;;;5.53;5.00;;;18.60;74.00;;;19.72;45.47;95420.88;5020078;28;20858;-55
2022/09/24 07:28:04;;;;;;;8.20;5.40;;;19.10;72.30;;;20.06;42.82;95427.50;5020704;28;20465;-56
2022/09/24 07:30:31;;;;;;;6.97;5.27;;;19.50;66.10;;;20.44;43.82;95418.56;5021174;28;20563;-57
2022/09/24 07:32:59;;;;;;;5.50;4.30;;;19.90;66.70;;;20.93;43.42;95423.22;5022459;28;20500;-55
2022/09/24 07:35:26;;;;;;;10.17;5.97;;;20.40;66.50;;;21.42;42.81;95422.41;5022258;28;20544;-56
2022/09/24 07:37:58;;;;;;;13.50;6.23;;;21.00;64.80;;;21.68;40.96;95421.00;5024029;28;20453;-57
2022/09/24 07:40:25;;;;;;;19.70;7.40;;;21.30;60.70;;;21.78;41.10;95424.16;5020401;28;21073;-57
2022/09/24 07:42:54;;;;;;;17.37;6.50;;;21.60;60.30;;;21.72;40.10;95416.91;5024385;28;20962;-56
2022/09/24 07:45:22;;;;;;;5.53;4.47;;;21.70;58.80;;;21.84;39.82;95420.69;5023612;28;21250;-56
2022/09/24 07:47:56;;;;;;;8.93;5.10;;;21.70;57.70;;;22.19;40.03;95412.63;5022734;28;20895;-56
2022/09/24 07:50:23;;;;;;;9.10;5.00;;;22.00;57.60;;;22.62;38.61;95416.97;5023654;28;20599;-55
2022/09/24 07:52:51;;;;;;;4.80;4.50;;;22.40;55.50;;;23.03;38.95;95407.97;5021078;28;21064;-56
2022/09/24 07:55:18;;;;;;;6.50;5.30;;;22.80;55.70;;;23.42;37.99;95410.91;5023568;28;20467;-57
2022/09/24 07:57:49;;;;;;;7.40;5.70;;;23.20;54.50;;;23.74;36.79;95411.91;5023496;28;20539;-55
2022/09/24 08:00:18;;;;;;;5.43;5.00;;;23.50;53.70;;;24.07;36.90;95413.75;5025266;28;20516;-57
2022/09/24 08:02:46;;;;;;;12.43;5.70;;;23.80;52.30;;;24.39;35.78;95410.34;5020860;28;20579;-56
2022/09/24 08:05:14;;;;;;;6.50;4.83;;;24.10;51.10;;;24.68;36.19;95415.19;5021386;28;20468;-56
2022/09/24 08:07:41;;;;;;;6.30;5.57;;;24.40;52.20;;;24.90;34.65;95411.38;5022420;28;20487;-57
2022/09/24 08:10:09;;;;;;;6.23;5.33;;;24.70;50.10;;;25.12;34.09;95409.97;5022620;28;20460;-57
2022/09/24 08:12:37;;;;;;;11.27;5.93;;;24.90;48.80;;;25.32;34.61;95409.84;5023750;28;20582;-56
2022/09/24 08:15:06;;;;;;;16.73;7.10;;;25.10;49.40;;;25.38;34.56;95400.91;5023607;28;20920;-55
2022/09/24 08:17:35;;;;;;;8.00;5.30;;;25.30;49.60;;;25.53;33.48;95405.97;5019562;28;20580;-55
2022/09/24 08:20:02;;;;;;;7.73;6.30;;;25.40;47.90;;;25.74;33.81;95409.31;5023143;28;20487;-55
2022/09/24 08:22:30;;;;;;;8.93;5.57;;;25.50;48.00;;;25.92;33.24;95397.75;5019789;28;20468;-55
2022/09/24 08:24:57;;;;;;;11.43;5.67;;;25.70;47.50;;;26.08;31.79;95394.47;5024088;28;20512;-55
2022/09/24 08:27:25;;;;;;;13.00;5.13;;;25.80;45.20;;;26.22;32.29;95402.41;5024961;28;20816;-56
2022/09/24 08:29:52;;;;;;;10.83;5.90;;;25.90;45.40;;;26.34;32.43;95389.81;5024330;28;20516;-57
2022/09/24 08:32:19;;;;;;;7.50;6.30;;;25.90;46.20;;;26.38;32.16;95388.31;5021756;28;20487;-56
2022/09/24 08:34:48;;;;;;;11.03;6.00;;;26.00;45.40;;;26.40;30.74;95388.91;5023710;28;20487;-56
2022/09/24 08:37:15;;;;;;;5.87;5.27;;;26.00;43.70;;;26.39;31.83;95384.56;5023351;28;20831;-57
2022/09/24 08:39:43;;;;;;;6.33;5.73;;;26.00;44.90;;;26.35;31.58;95391.44;5024127;28;20480;-58
2022/09/24 08:42:14;;;;;;;21.80;6.27;;;25.90;44.40;;;26.32;30.99;95389.25;5019055;28;20460;-58
2022/09/24 08:47:36;;;;;;;6.87;5.57;;;25.90;44.40;;;26.48;29.94;95379.69;5024239;28;20463;-56
2022/09/24 08:50:12;;;;;;;8.50;4.73;;;26.00;43.50;;;26.57;30.29;95374.78;5023639;28;20583;-56
2022/09/24 08:53:05;;;;;;;8.50;4.83;;;26.00;42.90;;;26.62;28.65;95364.16;5022658;28;21054;-57
2022/09/24 08:55:37;;;;;;;14.20;5.80;;;26.00;41.60;;;26.62;30.23;95364.16;5022439;28;20472;-57
2022/09/24 08:58:35;;;;;;;7.93;4.73;;;26.10;42.70;;;26.53;29.81;95370.91;5020904;28;20460;-57
2022/09/24 09:01:17;;;;;;;6.87;4.13;;;26.00;43.10;;;26.43;28.84;95366.03;5020101;28;20514;-56
2022/09/24 09:03:48;;;;;;;8.30;5.23;;;26.00;41.50;;;26.47;29.93;95365.38;5019894;28;20464;-56
2022/09/24 09:06:33;;;;;;;8.17;4.77;;;25.90;41.90;;;26.50;29.25;95364.09;5022894;28;20453;-57
2022/09/24 09:09:04;;;;;;;21.53;4.50;;;26.00;41.20;;;26.55;30.49;95364.22;5018875;28;20542;-58
2022/09/24 09:11:32;;;;;;;12.67;4.13;;;26.00;42.90;;;26.46;30.22;95366.44;5021402;28;20468;-57
2022/09/24 09:14:01;;;;;;;4.43;4.10;;;25.90;42.60;;;26.40;29.50;95355.72;5021509;28;20492;-56
2022/09/24 09:16:30;;;;;;;8.10;4.23;;;25.90;41.60;;;26.43;29.78;95361.50;5023075;28;20463;-56
2022/09/24 09:19:00;;;;;;;7.13;4.17;;;25.90;42.20;;;26.55;29.26;95358.00;5020075;28;20523;-56
2022/09/24 09:21:34;;;;;;;5.83;4.27;;;26.00;41.30;;;26.57;29.79;95361.28;5019197;28;20465;-59
2022/09/24 09:24:02;;;;;;;10.03;3.97;;;26.00;42.00;;;26.37;29.69;95350.75;5022927;28;20871;-57
2022/09/24 09:26:30;;;;;;;23.17;4.60;;;25.90;41.40;;;26.20;29.52;95339.81;5023747;28;20536;-57
2022/09/24 09:28:59;;;;;;;9.47;3.63;;;25.80;41.30;;;26.10;29.77;95340.31;5023600;28;20509;-59
2022/09/24 09:31:45;;;;;;;34.57;5.67;;;25.70;42.40;;;26.02;29.81;95337.94;5020743;28;20452;-57
2022/09/24 09:34:29;;;;;;;11.17;3.83;;;25.50;42.20;;;26.02;29.87;95333.34;5021905;28;20518;-57
2022/09/24 09:37:09;;;;;;;5.10;4.23;;;25.50;42.30;;;26.17;30.97;95326.78;5022696;28;20448;-56
2022/09/24 09:39:46;;;;;;;8.23;3.73;;;25.60;43.70;;;26.29;30.27;95324.97;5020152;28;20550;-57
2022/09/24 09:42:29;;;;;;;6.53;3.00;;;25.70;43.00;;;26.37;29.90;95321.94;5020801;28;20456;-56
2022/09/24 09:44:56;;;;;;;5.70;3.63;;;25.80;41.50;;;26.42;29.99;95321.25;5017801;28;20490;-55
2022/09/24 09:47:34;;;;;;;5.50;2.70;;;25.90;42.50;;;26.39;28.58;95309.03;5023267;28;20499;-55
2022/09/24 09:50:06;;;;;;;7.33;2.70;;;25.90;41.20;;;26.37;29.15;95297.66;5020715;28;20507;-56
2022/09/24 09:52:37;;;;;;;3.30;3.07;;;25.90;41.10;;;26.38;29.46;95293.91;5020609;28;20869;-56
2022/09/24 09:55:05;;;;;;;3.87;3.33;;;25.90;41.60;;;26.41;29.08;95298.84;5022639;28;20921;-57
2022/09/24 09:57:34;;;;;;;14.30;6.40;;;25.90;40.60;;;26.44;29.39;95295.69;5024218;28;20826;-58
2022/09/24 10:00:02;;;;;;;9.23;3.07;;;25.90;41.40;;;26.40;28.21;95289.13;5020539;28;20487;-56
2022/09/24 10:02:32;;;;;;;5.30;3.73;;;25.90;39.60;;;26.37;28.40;95292.28;5023889;28;20559;-55
2022/09/24 10:05:00;;;;;;;1.73;1.63;;;25.80;40.40;;;26.28;28.64;95290.94;5022845;28;20842;-57
2022/09/24 10:07:30;;;;;;;2.10;2.00;;;25.80;39.60;;;26.17;28.14;95280.94;5023454;28;20456;-56
2022/09/24 10:10:12;;;;;;;4.50;2.20;;;25.70;38.70;;;26.14;28.37;95274.13;5023740;28;20468;-56
2022/09/24 10:12:39;;;;;;;2.43;1.80;;;25.60;39.90;;;26.11;28.33;95283.47;5022686;28;20479;-56
2022/09/24 10:15:17;;;;;;;5.63;2.70;;;25.60;39.70;;;26.10;27.98;95271.06;5026731;28;20852;-57
2022/09/24 10:17:45;;;;;;;3.30;1.63;;;25.60;40.00;;;26.09;27.49;95265.91;5023155;28;20444;-56
2022/09/24 10:20:18;;;;;;;2.40;2.17;;;25.60;38.50;;;26.09;28.21;95269.41;5029073;28;21256;-60
2022/09/24 10:22:49;;;;;;;6.73;2.17;;;25.60;39.70;;;26.14;27.77;95276.00;5027391;28;20436;-58
2022/09/24 10:25:25;;;;;;;3.30;2.43;;;25.60;39.50;;;26.26;27.60;95276.88;5027364;28;20471;-56
2022/09/24 10:27:53;;;;;;;2.30;2.20;;;25.70;39.50;;;26.42;28.35;95278.09;5026060;28;20501;-58
2022/09/24 10:30:35;;;;;;;2.10;1.90;;;25.90;39.70;;;26.53;27.90;95279.19;5027247;28;20483;-57
2022/09/24 10:33:04;;;;;;;6.83;2.30;;;25.90;39.00;;;26.48;27.29;95267.22;5024830;28;20541;-58
2022/09/24 10:35:34;;;;;;;2.33;1.73;;;26.00;38.10;;;26.49;27.09;95268.03;5026499;28;20547;-58
2022/09/24 10:38:03;;;;;;;2.17;2.07;;;26.00;37.70;;;26.52;27.23;95269.44;5027123;28;20452;-58
2022/09/24 10:40:38;;;;;;;1.90;1.80;;;26.00;38.00;;;26.51;26.74;95267.78;5026148;28;20947;-58